Select Airport:
Chesapeake Regional Airport
Last updated: 25 minutes ago
Flight conditions: VFR
Visibility: 10.0 statute miles
Sky Conditions: Clear
Wind From: 160°
Wind speed: 5 knots (5.75 mph)
Temperature: 9.6°C (49.28°F)
Dew Point: 0.4°C (32.72°F)
Altimiter setting: 30.35 in-hg
WX phone: 1-757-204-4290
WX freq: 123.675 MHz
Runway 23
   Crosswind component: 4.7 knots (5.4 mph)
   Headwind component: 1.71 knots (1.97 mph)
   NOTE - Close to a 90° crosswind. Active runway may change if wind shifts.
KCPK 031535Z AUTO 16005KT 10SM CLR 10/00 A3035 RMK AO2 T00960004
FOR REFERENCE USE ONLY, DATA MAY NOT BE CURRENT.
ALWAYS CHECK FOR UP TO DATE INFORMATION.